createdAt,value
2018-12-04T00:00:38.739Z,94761.00
2018-12-04T00:03:08.015Z,94781.00
2018-12-04T00:05:37.197Z,94774.00
2018-12-04T00:08:06.294Z,94788.00
2018-12-04T00:10:35.446Z,94772.00
2018-12-04T00:13:04.785Z,94789.00
2018-12-04T00:15:33.956Z,94795.00
2018-12-04T00:18:03.916Z,94799.00
2018-12-04T00:20:33.721Z,94793.00
2018-12-04T00:23:04.081Z,94794.00
2018-12-04T00:25:34.056Z,94807.00
2018-12-04T00:28:04.205Z,94812.00
2018-12-04T00:30:33.972Z,94801.00
2018-12-04T00:33:03.944Z,94807.00
2018-12-04T00:35:34.044Z,94801.00
2018-12-04T00:38:03.874Z,94799.00
2018-12-04T00:40:33.984Z,94812.00
2018-12-04T00:43:04.337Z,94806.00
2018-12-04T00:45:33.999Z,94814.00
2018-12-04T00:48:04.045Z,94818.00
2018-12-04T00:50:34.168Z,94815.00
2018-12-04T00:53:07.717Z,94815.00
2018-12-04T00:58:21.795Z,94824.00
2018-12-04T01:00:50.943Z,94829.00
2018-12-04T01:03:20.229Z,94837.00
2018-12-04T01:05:49.339Z,94843.00
2018-12-04T01:10:57.812Z,94834.00
2018-12-04T01:13:26.992Z,94837.00
2018-12-04T01:15:56.064Z,94849.00
2018-12-04T01:18:25.553Z,94850.00
2018-12-04T01:20:54.805Z,94851.00
2018-12-04T01:23:23.925Z,94849.00
2018-12-04T01:25:53.120Z,94845.00
2018-12-04T01:28:22.440Z,94846.00
2018-12-04T01:30:51.592Z,94833.00
2018-12-04T01:33:20.738Z,94825.00
2018-12-04T01:35:49.969Z,94848.00
2018-12-04T01:38:19.125Z,94851.00
2018-12-04T01:40:48.243Z,94852.00
2018-12-04T01:43:18.112Z,94844.00
2018-12-04T01:45:47.237Z,94848.00
2018-12-04T01:50:54.968Z,94847.00
2018-12-04T01:53:24.204Z,94865.00
2018-12-04T01:55:53.316Z,94864.00
2018-12-04T01:58:23.621Z,94863.00
2018-12-04T02:00:52.820Z,94858.00
2018-12-04T02:03:22.016Z,94856.00
2018-12-04T02:05:51.140Z,94862.00
2018-12-04T02:08:20.332Z,94870.00
2018-12-04T02:10:49.462Z,94856.00
2018-12-04T02:13:18.672Z,94862.00
2018-12-04T02:15:47.775Z,94872.00
2018-12-04T02:18:17.884Z,94866.00
2018-12-04T02:20:48.339Z,94869.00
2018-12-04T02:23:18.115Z,94866.00
2018-12-04T02:25:47.295Z,94867.00
2018-12-04T02:28:16.455Z,94863.00
2018-12-04T02:30:45.711Z,94875.00
2018-12-04T02:33:14.800Z,94868.00
2018-12-04T02:35:44.016Z,94866.00
2018-12-04T02:38:13.292Z,94865.00
2018-12-04T02:40:42.412Z,94879.00
2018-12-04T02:43:11.660Z,94874.00
2018-12-04T02:45:40.849Z,94887.00
2018-12-04T02:50:49.564Z,94879.00
2018-12-04T02:53:18.765Z,94875.00
2018-12-04T02:55:47.846Z,94877.00
2018-12-04T02:58:19.151Z,94894.00
2018-12-04T03:00:48.352Z,94887.00
2018-12-04T03:05:57.084Z,94894.00
2018-12-04T03:08:26.260Z,94895.00
2018-12-04T03:10:55.488Z,94899.00
2018-12-04T03:13:24.664Z,94902.00
2018-12-04T03:15:53.884Z,94914.00
2018-12-04T03:18:23.017Z,94913.00
2018-12-04T03:20:52.096Z,94925.00
2018-12-04T03:23:21.297Z,94921.00
2018-12-04T03:25:50.454Z,94917.00
2018-12-04T03:28:19.618Z,94928.00
2018-12-04T03:30:49.038Z,94927.00
2018-12-04T03:33:40.000Z,94928.00
2018-12-04T03:36:09.248Z,94930.00
2018-12-04T03:38:38.460Z,94937.00
2018-12-04T03:41:08.005Z,94954.00
2018-12-04T03:46:16.411Z,94942.00
2018-12-04T03:48:45.480Z,94950.00
2018-12-04T03:51:14.534Z,94946.00
2018-12-04T03:53:43.652Z,94942.00
2018-12-04T03:58:50.993Z,94954.00
2018-12-04T04:01:21.106Z,94952.00
2018-12-04T04:03:50.355Z,94953.00
2018-12-04T04:06:19.597Z,94964.00
2018-12-04T04:08:48.741Z,94970.00
2018-12-04T04:11:17.961Z,94964.00
2018-12-04T04:13:47.085Z,94966.00
2018-12-04T04:16:16.319Z,94967.00
2018-12-04T04:18:45.669Z,94971.00
2018-12-04T04:21:14.782Z,94957.00
2018-12-04T04:23:43.960Z,94976.00
2018-12-04T04:26:13.086Z,94962.00
2018-12-04T04:28:42.173Z,94963.00
2018-12-04T04:31:11.332Z,94952.00
2018-12-04T04:33:41.473Z,94973.00
2018-12-04T04:36:10.641Z,94955.00
2018-12-04T04:38:41.635Z,94985.00
2018-12-04T04:41:10.927Z,94976.00
2018-12-04T04:43:40.113Z,94979.00
2018-12-04T04:46:09.229Z,94977.00
2018-12-04T04:51:16.777Z,94990.00
2018-12-04T04:53:45.931Z,94983.00
2018-12-04T04:56:15.103Z,94995.00
2018-12-04T04:58:44.286Z,95007.00
2018-12-04T05:01:13.481Z,95007.00
2018-12-04T05:03:44.206Z,95016.00
2018-12-04T05:06:13.367Z,95015.00
2018-12-04T05:08:42.644Z,95019.00
2018-12-04T05:11:12.036Z,95021.00
2018-12-04T05:13:41.101Z,95037.00
2018-12-04T05:16:10.328Z,95030.00
2018-12-04T05:18:39.424Z,95040.00
2018-12-04T05:21:09.004Z,95033.00
2018-12-04T05:23:38.277Z,95035.00
2018-12-04T05:26:07.578Z,95041.00
2018-12-04T05:28:37.584Z,95046.00
2018-12-04T05:31:07.614Z,95050.00
2018-12-04T05:33:37.821Z,95050.00
2018-12-04T05:36:07.876Z,95063.00
2018-12-04T05:38:37.798Z,95075.00
2018-12-04T05:41:07.888Z,95066.00
2018-12-04T05:43:37.921Z,95059.00
2018-12-04T05:46:07.823Z,95077.00
2018-12-04T05:48:37.750Z,95070.00
2018-12-04T05:53:46.960Z,95085.00
2018-12-04T05:56:16.136Z,95077.00
2018-12-04T05:58:45.211Z,95084.00
2018-12-04T06:01:14.426Z,95089.00
2018-12-04T06:03:43.810Z,95105.00
2018-12-04T06:06:12.889Z,95095.00
2018-12-04T06:08:41.973Z,95109.00
2018-12-04T06:11:11.091Z,95102.00
2018-12-04T06:13:40.249Z,95106.00
2018-12-04T06:16:09.474Z,95116.00
2018-12-04T06:18:38.738Z,95117.00
2018-12-04T06:21:07.964Z,95131.00
2018-12-04T06:23:37.991Z,95123.00
2018-12-04T06:26:08.095Z,95119.00
2018-12-04T06:28:38.100Z,95122.00
2018-12-04T06:31:08.132Z,95121.00
2018-12-04T06:36:17.406Z,95115.00
2018-12-04T06:41:25.830Z,95123.00
2018-12-04T06:43:55.000Z,95122.00
2018-12-04T06:46:24.178Z,95134.00
2018-12-04T06:48:53.345Z,95132.00
2018-12-04T06:51:22.444Z,95135.00
2018-12-04T06:56:30.796Z,95123.00
2018-12-04T06:58:59.961Z,95138.00
2018-12-04T07:01:29.110Z,95137.00
2018-12-04T07:03:58.256Z,95154.00
2018-12-04T07:06:27.328Z,95142.00
2018-12-04T07:08:56.452Z,95156.00
2018-12-04T07:11:25.768Z,95163.00
2018-12-04T07:13:54.924Z,95170.00
2018-12-04T07:16:25.718Z,95165.00
2018-12-04T07:18:54.900Z,95170.00
2018-12-04T07:21:23.979Z,95190.00
2018-12-04T07:23:53.641Z,95184.00
2018-12-04T07:26:22.838Z,95193.00
2018-12-04T07:28:51.896Z,95193.00
2018-12-04T07:31:22.401Z,95193.00
2018-12-04T07:33:51.516Z,95209.00
2018-12-04T07:36:20.664Z,95208.00
2018-12-04T07:38:49.924Z,95216.00
2018-12-04T07:41:19.171Z,95221.00
2018-12-04T07:43:48.402Z,95225.00
2018-12-04T07:46:17.932Z,95235.00
2018-12-04T07:48:47.188Z,95235.00
2018-12-04T07:51:16.313Z,95251.00
2018-12-04T07:56:24.093Z,95263.00
2018-12-04T07:58:53.213Z,95261.00
2018-12-04T08:01:22.395Z,95262.00
2018-12-04T08:03:51.553Z,95259.00
2018-12-04T08:08:59.309Z,95259.00
2018-12-04T08:14:07.196Z,95262.00
2018-12-04T08:19:15.920Z,95283.00
2018-12-04T08:21:45.120Z,95280.00
2018-12-04T08:24:14.304Z,95292.00
2018-12-04T08:26:44.140Z,95308.00
2018-12-04T08:29:13.226Z,95297.00
2018-12-04T08:31:42.464Z,95308.00
2018-12-04T08:34:11.608Z,95307.00
2018-12-04T08:36:40.798Z,95308.00
2018-12-04T08:39:13.109Z,95316.00
2018-12-04T08:41:41.096Z,95329.00
2018-12-04T08:44:10.276Z,95333.00
2018-12-04T08:46:40.547Z,95357.00
2018-12-04T08:51:47.929Z,95352.00
2018-12-04T08:56:57.102Z,95372.00
2018-12-04T08:59:26.252Z,95386.00
2018-12-04T09:01:55.616Z,95401.00
2018-12-04T09:04:24.784Z,95403.00
2018-12-04T09:06:53.987Z,95403.00
2018-12-04T09:09:23.277Z,95401.00
2018-12-04T09:11:52.442Z,95405.00
2018-12-04T09:14:21.616Z,95411.00
2018-12-04T09:16:50.852Z,95412.00
2018-12-04T09:19:19.992Z,95418.00
2018-12-04T09:24:30.717Z,95424.00
2018-12-04T09:27:05.354Z,95432.00
2018-12-04T09:29:31.381Z,95438.00
2018-12-04T09:32:00.522Z,95433.00
2018-12-04T09:34:30.015Z,95445.00
2018-12-04T09:36:59.532Z,95443.00
2018-12-04T09:39:28.649Z,95446.00
2018-12-04T09:41:57.861Z,95465.00
2018-12-04T09:44:26.984Z,95473.00
2018-12-04T09:49:34.697Z,95480.00
2018-12-04T09:52:04.032Z,95478.00
2018-12-04T09:54:33.248Z,95478.00
2018-12-04T09:57:02.356Z,95467.00
2018-12-04T09:59:31.476Z,95479.00
2018-12-04T10:02:00.548Z,95480.00
2018-12-04T10:04:29.724Z,95490.00
2018-12-04T10:06:58.912Z,95477.00
2018-12-04T10:09:28.101Z,95471.00
2018-12-04T10:11:57.300Z,95473.00
2018-12-04T10:14:26.405Z,95466.00
2018-12-04T10:16:55.665Z,95481.00
2018-12-04T10:19:24.818Z,95477.00
2018-12-04T10:21:53.934Z,95466.00
2018-12-04T10:24:23.021Z,95479.00
2018-12-04T10:26:58.159Z,95484.00
2018-12-04T10:29:27.836Z,95478.00
2018-12-04T10:31:57.117Z,95484.00
2018-12-04T10:34:26.272Z,95499.00
2018-12-04T10:36:55.449Z,95478.00
2018-12-04T10:39:24.685Z,95474.00
2018-12-04T10:41:54.225Z,95478.00
2018-12-04T10:44:23.335Z,95482.00
2018-12-04T10:46:52.395Z,95471.00
2018-12-04T10:52:00.121Z,95480.00
2018-12-04T10:54:29.316Z,95492.00
2018-12-04T10:56:58.484Z,95497.00
2018-12-04T10:59:27.605Z,95498.00
2018-12-04T11:02:01.954Z,95496.00
2018-12-04T11:07:11.106Z,95493.00
2018-12-04T11:09:41.077Z,95500.00
2018-12-04T11:12:12.407Z,95496.00
2018-12-04T11:14:41.719Z,95515.00
2018-12-04T11:17:11.362Z,95505.00
2018-12-04T11:19:41.180Z,95501.00
2018-12-04T11:22:11.403Z,95521.00
2018-12-04T11:24:41.324Z,95514.00
2018-12-04T11:27:11.513Z,95520.00
2018-12-04T11:29:41.343Z,95519.00
2018-12-04T11:32:11.456Z,95545.00
2018-12-04T11:34:41.454Z,95526.00
2018-12-04T11:37:11.445Z,95527.00
2018-12-04T11:39:41.476Z,95527.00
2018-12-04T11:42:11.613Z,95526.00
2018-12-04T11:44:41.568Z,95529.00
2018-12-04T11:47:11.740Z,95529.00
2018-12-04T11:52:19.966Z,95543.00
2018-12-04T11:54:49.196Z,95543.00
2018-12-04T11:57:18.656Z,95550.00
2018-12-04T11:59:47.780Z,95550.00
2018-12-04T12:04:57.389Z,95550.00
2018-12-04T12:07:26.561Z,95558.00
2018-12-04T12:12:34.906Z,95566.00
2018-12-04T12:15:04.176Z,95553.00
2018-12-04T12:17:33.319Z,95587.00
2018-12-04T12:20:02.397Z,95569.00
2018-12-04T12:22:31.584Z,95584.00
2018-12-04T12:25:00.820Z,95597.00
2018-12-04T12:27:29.951Z,95601.00
2018-12-04T12:29:59.160Z,95594.00
2018-12-04T12:32:28.320Z,95602.00
2018-12-04T12:34:57.416Z,95603.00
2018-12-04T12:37:26.540Z,95602.00
2018-12-04T12:39:55.802Z,95598.00
2018-12-04T12:45:05.501Z,95615.00
2018-12-04T12:47:34.550Z,95617.00
2018-12-04T12:50:04.204Z,95622.00
2018-12-04T12:52:33.208Z,95610.00
2018-12-04T12:57:42.142Z,95614.00
2018-12-04T13:00:12.504Z,95631.00
2018-12-04T13:02:42.468Z,95645.00
2018-12-04T13:05:13.228Z,95652.00
2018-12-04T13:07:42.578Z,95644.00
2018-12-04T13:10:12.611Z,95658.00
2018-12-04T13:12:42.619Z,95664.00
2018-12-04T13:15:12.608Z,95665.00
2018-12-04T13:17:42.660Z,95666.00
2018-12-04T13:20:12.779Z,95652.00
2018-12-04T13:22:42.742Z,95671.00
2018-12-04T13:25:12.869Z,95672.00
2018-12-04T13:27:42.709Z,95669.00
2018-12-04T13:30:14.244Z,95675.00
2018-12-04T13:32:43.482Z,95691.00
2018-12-04T13:35:12.900Z,95685.00
2018-12-04T13:37:42.951Z,95677.00
2018-12-04T13:40:13.175Z,95682.00
2018-12-04T13:42:43.016Z,95693.00
2018-12-04T13:45:13.151Z,95701.00
2018-12-04T13:47:43.011Z,95687.00
2018-12-04T13:52:55.488Z,95695.00
2018-12-04T13:55:24.620Z,95696.00
2018-12-04T13:57:53.833Z,95701.00
2018-12-04T14:00:22.946Z,95705.00
2018-12-04T14:02:52.131Z,95707.00
2018-12-04T14:05:21.442Z,95711.00
2018-12-04T14:07:50.628Z,95714.00
2018-12-04T14:10:19.767Z,95735.00
2018-12-04T14:12:49.205Z,95745.00
2018-12-04T14:15:18.632Z,95743.00
2018-12-04T14:17:47.745Z,95750.00
2018-12-04T14:20:17.916Z,95754.00
2018-12-04T14:22:47.128Z,95768.00
2018-12-04T14:25:16.268Z,95772.00
2018-12-04T14:27:49.065Z,95778.00
2018-12-04T14:30:17.937Z,95776.00
2018-12-04T14:32:47.058Z,95782.00
2018-12-04T14:35:16.115Z,95786.00
2018-12-04T14:37:45.184Z,95800.00
2018-12-04T14:40:14.340Z,95820.00
2018-12-04T14:42:43.738Z,95819.00
2018-12-04T14:45:13.876Z,95812.00
2018-12-04T14:47:44.761Z,95815.00
2018-12-04T14:50:14.321Z,95800.00
2018-12-04T14:52:43.695Z,95811.00
2018-12-04T14:55:13.890Z,95826.00
2018-12-04T14:57:43.916Z,95821.00
2018-12-04T15:00:14.144Z,95810.00
2018-12-04T15:02:43.812Z,95834.00
2018-12-04T15:05:13.996Z,95823.00
2018-12-04T15:07:43.969Z,95826.00
2018-12-04T15:12:54.947Z,95840.00
2018-12-04T15:15:24.793Z,95851.00
2018-12-04T15:17:54.272Z,95841.00
2018-12-04T15:20:23.475Z,95847.00
2018-12-04T15:22:52.694Z,95853.00
2018-12-04T15:25:22.119Z,95835.00
2018-12-04T15:27:51.279Z,95849.00
2018-12-04T15:30:22.465Z,95842.00
2018-12-04T15:32:51.604Z,95858.00
2018-12-04T15:35:20.750Z,95853.00
2018-12-04T15:37:49.993Z,95856.00
2018-12-04T15:42:58.273Z,95864.00
2018-12-04T15:45:27.340Z,95869.00
2018-12-04T15:47:56.525Z,95872.00
2018-12-04T15:50:25.969Z,95875.00
2018-12-04T15:55:33.364Z,95889.00
2018-12-04T15:58:02.630Z,95884.00
2018-12-04T16:00:32.028Z,95875.00
2018-12-04T16:03:01.244Z,95878.00
2018-12-04T16:05:30.401Z,95895.00
2018-12-04T16:07:59.506Z,95894.00
2018-12-04T16:10:28.712Z,95907.00
2018-12-04T16:12:57.811Z,95901.00
2018-12-04T16:15:27.185Z,95907.00
2018-12-04T16:17:56.437Z,95907.00
2018-12-04T16:20:25.489Z,95915.00
2018-12-04T16:22:54.773Z,95910.00
2018-12-04T16:25:23.957Z,95903.00
2018-12-04T16:27:53.120Z,95921.00
2018-12-04T16:30:23.912Z,95929.00
2018-12-04T16:32:53.024Z,95938.00
2018-12-04T16:35:22.217Z,95943.00
2018-12-04T16:37:51.380Z,95943.00
2018-12-04T16:40:20.448Z,95949.00
2018-12-04T16:42:49.691Z,95950.00
2018-12-04T16:45:19.021Z,95949.00
2018-12-04T16:47:48.132Z,95964.00
2018-12-04T16:50:18.052Z,95952.00
2018-12-04T16:55:25.572Z,95972.00
2018-12-04T16:57:54.720Z,95972.00
2018-12-04T17:00:24.065Z,95980.00
2018-12-04T17:02:53.212Z,95976.00
2018-12-04T17:05:22.452Z,95970.00
2018-12-04T17:07:51.652Z,95966.00
2018-12-04T17:10:22.662Z,95979.00
2018-12-04T17:12:52.021Z,95978.00
2018-12-04T17:15:21.252Z,95994.00
2018-12-04T17:17:51.670Z,95994.00
2018-12-04T17:20:20.784Z,95993.00
2018-12-04T17:22:49.931Z,95994.00
2018-12-04T17:27:58.358Z,95979.00
2018-12-04T17:30:28.079Z,95995.00
2018-12-04T17:32:57.530Z,96000.00
2018-12-04T17:35:26.688Z,96011.00
2018-12-04T17:37:55.853Z,96023.00
2018-12-04T17:40:25.100Z,96032.00
2018-12-04T17:42:54.312Z,96026.00
2018-12-04T17:45:23.439Z,96041.00
2018-12-04T17:50:31.784Z,96046.00
2018-12-04T17:53:00.930Z,96053.00
2018-12-04T17:55:30.065Z,96052.00
2018-12-04T17:57:59.145Z,96059.00
2018-12-04T18:00:28.237Z,96064.00
2018-12-04T18:02:57.358Z,96063.00
2018-12-04T18:05:26.557Z,96078.00
2018-12-04T18:07:55.784Z,96072.00
2018-12-04T18:10:25.040Z,96084.00
2018-12-04T18:12:55.907Z,96080.00
2018-12-04T18:15:25.080Z,96078.00
2018-12-04T18:17:54.193Z,96081.00
2018-12-04T18:20:23.317Z,96074.00
2018-12-04T18:25:31.668Z,96108.00
2018-12-04T18:28:00.724Z,96103.00
2018-12-04T18:30:29.748Z,96087.00
2018-12-04T18:32:58.848Z,96110.00
2018-12-04T18:35:28.059Z,96111.00
2018-12-04T18:37:57.213Z,96122.00
2018-12-04T18:40:26.348Z,96107.00
2018-12-04T18:42:55.517Z,96118.00
2018-12-04T18:45:24.629Z,96120.00
2018-12-04T18:50:33.460Z,96137.00
2018-12-04T18:53:02.704Z,96128.00
2018-12-04T18:55:31.952Z,96119.00
2018-12-04T19:00:40.084Z,96140.00
2018-12-04T19:03:09.425Z,96131.00
2018-12-04T19:08:24.447Z,96147.00
2018-12-04T19:10:52.544Z,96149.00
2018-12-04T19:13:21.756Z,96141.00
2018-12-04T19:15:50.985Z,96152.00
2018-12-04T19:18:20.132Z,96139.00
2018-12-04T19:20:49.157Z,96142.00
2018-12-04T19:23:18.355Z,96135.00
2018-12-04T19:25:48.306Z,96157.00
2018-12-04T19:28:17.361Z,96164.00
2018-12-04T19:30:46.973Z,96162.00
2018-12-04T19:33:17.689Z,96170.00
2018-12-04T19:35:47.297Z,96165.00
2018-12-04T19:38:17.270Z,96165.00
2018-12-04T19:40:49.100Z,96167.00
2018-12-04T19:43:18.993Z,96152.00
2018-12-04T19:45:48.149Z,96153.00
2018-12-04T19:48:17.274Z,96164.00
2018-12-04T19:50:47.393Z,96165.00
2018-12-04T19:55:56.507Z,96163.00
2018-12-04T20:01:04.464Z,96177.00
2018-12-04T20:03:33.696Z,96176.00
2018-12-04T20:06:02.833Z,96181.00
2018-12-04T20:08:37.408Z,96180.00
2018-12-04T20:11:06.508Z,96186.00
2018-12-04T20:13:35.597Z,96177.00
2018-12-04T20:16:04.981Z,96184.00
2018-12-04T20:18:34.074Z,96200.00
2018-12-04T20:21:03.501Z,96203.00
2018-12-04T20:23:32.989Z,96200.00
2018-12-04T20:26:02.650Z,96204.00
2018-12-04T20:28:31.755Z,96207.00
2018-12-04T20:31:01.000Z,96201.00
2018-12-04T20:33:30.117Z,96196.00
2018-12-04T20:35:59.270Z,96195.00
2018-12-04T20:38:28.496Z,96196.00
2018-12-04T20:40:57.839Z,96193.00
2018-12-04T20:43:26.940Z,96199.00
2018-12-04T20:45:56.005Z,96209.00
2018-12-04T20:48:25.124Z,96213.00
2018-12-04T20:50:55.549Z,96215.00
2018-12-04T20:56:03.281Z,96211.00
2018-12-04T20:58:32.364Z,96227.00
2018-12-04T21:01:01.826Z,96234.00
2018-12-04T21:03:31.295Z,96237.00
2018-12-04T21:06:00.907Z,96232.00
2018-12-04T21:08:30.157Z,96241.00
2018-12-04T21:10:59.822Z,96221.00
2018-12-04T21:13:28.925Z,96213.00
2018-12-04T21:15:58.116Z,96218.00
2018-12-04T21:18:27.378Z,96219.00
2018-12-04T21:20:56.393Z,96222.00
2018-12-04T21:23:26.613Z,96239.00
2018-12-04T21:25:55.739Z,96239.00
2018-12-04T21:28:25.204Z,96234.00
2018-12-04T21:30:59.672Z,96216.00
2018-12-04T21:33:33.996Z,96234.00
2018-12-04T21:36:08.409Z,96234.00
2018-12-04T21:38:42.866Z,96244.00
2018-12-04T21:41:17.204Z,96237.00
2018-12-04T21:43:51.719Z,96248.00
2018-12-04T21:46:25.954Z,96257.00
2018-12-04T21:48:55.126Z,96254.00
2018-12-04T21:51:24.256Z,96263.00
2018-12-04T21:53:54.690Z,96267.00
2018-12-04T21:56:24.008Z,96262.00
2018-12-04T21:58:53.082Z,96272.00
2018-12-04T22:01:22.308Z,96272.00
2018-12-04T22:03:51.472Z,96281.00
2018-12-04T22:06:20.740Z,96289.00
2018-12-04T22:08:49.987Z,96284.00
2018-12-04T22:11:19.281Z,96282.00
2018-12-04T22:13:49.259Z,96282.00
2018-12-04T22:18:58.424Z,96289.00
2018-12-04T22:21:27.784Z,96285.00
2018-12-04T22:23:56.932Z,96290.00
2018-12-04T22:26:26.208Z,96297.00
2018-12-04T22:28:55.366Z,96295.00
2018-12-04T22:31:24.450Z,96260.00
2018-12-04T22:36:32.747Z,96289.00
2018-12-04T22:39:01.896Z,96286.00
2018-12-04T22:41:30.996Z,96299.00
2018-12-04T22:44:00.108Z,96302.00
2018-12-04T22:46:29.184Z,96297.00
2018-12-04T22:51:40.566Z,96314.00
2018-12-04T22:54:09.636Z,96298.00
2018-12-04T22:59:18.200Z,96310.00
2018-12-04T23:01:47.406Z,96319.00
2018-12-04T23:04:16.648Z,96321.00
2018-12-04T23:06:45.715Z,96320.00
2018-12-04T23:09:14.929Z,96325.00
2018-12-04T23:11:44.044Z,96326.00
2018-12-04T23:14:14.696Z,96317.00
2018-12-04T23:16:44.005Z,96329.00
2018-12-04T23:19:13.202Z,96307.00
2018-12-04T23:21:43.591Z,96311.00
2018-12-04T23:24:12.760Z,96305.00
2018-12-04T23:26:41.900Z,96304.00
2018-12-04T23:29:11.073Z,96294.00
2018-12-04T23:31:40.198Z,96276.00
2018-12-04T23:34:09.307Z,96287.00
2018-12-04T23:36:38.448Z,96282.00
2018-12-04T23:39:08.465Z,96286.00
2018-12-04T23:41:37.716Z,96283.00
2018-12-04T23:44:07.013Z,96280.00
2018-12-04T23:46:36.136Z,96286.00
2018-12-04T23:49:05.459Z,96295.00
2018-12-04T23:51:34.529Z,96298.00
2018-12-04T23:56:43.509Z,96310.00
2018-12-04T23:59:12.737Z,96311.00
